Time;durP1;ratioP1;P1;durP2;ratioP2;P2;SDS_P1;SDS_P2;PMS_P1;PMS_P2;Temp;Humidity;BMP_temperature;BMP_pressure;BME280_temperature;BME280_humidity;BME280_pressure;Samples;Min_cycle;Max_cycle;Signal;HPM_P1;HPM_P2
2021/01/07 00:02:10;;;;;;;6.45;4.82;;;;;;;-4.56;100.00;100315.59;5014691;28;20512;-79
2021/01/07 00:05:13;;;;;;;27.17;4.50;;;;;;;-4.62;100.00;100306.97;5002637;28;20504;-79
2021/01/07 00:08:17;;;;;;;3.17;2.92;;;;;;;-4.65;100.00;100313.94;5014772;28;20046;-78
2021/01/07 00:11:20;;;;;;;4.90;4.22;;;;;;;-4.69;100.00;100313.09;5014545;28;20053;-79
2021/01/07 00:14:23;;;;;;;12.60;5.43;;;;;;;-4.70;100.00;100311.50;5022973;28;20064;-78
2021/01/07 00:17:27;;;;;;;6.70;4.97;;;;;;;-4.72;100.00;100313.78;5033909;28;20049;-78
2021/01/07 00:20:31;;;;;;;4.68;2.50;;;;;;;-4.80;100.00;100314.81;5034197;28;20422;-78
2021/01/07 00:23:35;;;;;;;11.98;3.45;;;;;;;-4.89;100.00;100308.84;5021727;28;20516;-78
2021/01/07 00:26:38;;;;;;;2.83;2.58;;;;;;;-4.91;100.00;100305.69;5034059;28;20042;-79
2021/01/07 00:29:41;;;;;;;2.53;2.30;;;;;;;-4.93;100.00;100299.84;5034293;28;20056;-78
2021/01/07 00:32:45;;;;;;;8.27;2.97;;;;;;;-4.95;100.00;100288.56;5033872;28;20112;-78
2021/01/07 00:35:48;;;;;;;9.75;3.70;;;;;;;-4.95;100.00;100288.56;5027311;28;20047;-79
2021/01/07 00:38:51;;;;;;;6.60;2.22;;;;;;;-4.90;100.00;100296.41;5053849;28;20052;-78
2021/01/07 00:41:59;;;;;;;5.78;3.55;;;;;;;-4.90;100.00;100291.00;5053902;28;20068;-78
2021/01/07 00:45:03;;;;;;;11.48;3.42;;;;;;;-4.96;100.00;100280.78;5041570;28;20064;-78
2021/01/07 00:48:07;;;;;;;11.55;3.10;;;;;;;-5.02;100.00;100280.28;5053747;28;20040;-79
2021/01/07 00:51:11;;;;;;;8.73;5.53;;;;;;;-5.04;100.00;100265.50;5053774;28;20401;-78
2021/01/07 00:54:14;;;;;;;5.72;3.85;;;;;;;-5.06;100.00;100263.16;5053552;28;20055;-79
2021/01/07 00:57:18;;;;;;;4.40;2.17;;;;;;;-5.06;100.00;100263.16;5053549;28;20075;-79
2021/01/07 01:00:23;;;;;;;4.55;2.60;;;;;;;-5.05;100.00;100262.03;5053364;28;20048;-79
2021/01/07 01:03:27;;;;;;;11.43;3.75;;;;;;;-5.04;100.00;100260.84;5041169;28;20500;-79
2021/01/07 01:06:33;;;;;;;9.55;4.30;;;;;;;-5.10;100.00;100254.16;5053825;28;20045;-79
2021/01/07 01:09:36;;;;;;;6.25;2.58;;;;;;;-5.15;100.00;100251.72;5053027;28;20048;-79
2021/01/07 01:12:40;;;;;;;6.50;1.65;;;;;;;-5.18;100.00;100252.47;5053472;28;20052;-79
2021/01/07 01:15:44;;;;;;;3.45;3.15;;;;;;;-5.25;100.00;100260.47;5040976;28;20048;-79
2021/01/07 01:18:47;;;;;;;2.28;2.20;;;;;;;-5.27;100.00;100245.69;5040775;28;20063;-79
2021/01/07 01:21:51;;;;;;;4.35;3.95;;;;;;;-5.31;100.00;100242.94;5053049;28;20151;-78
2021/01/07 01:24:57;;;;;;;6.93;5.03;;;;;;;-5.33;100.00;100245.22;5053277;28;20044;-79
2021/01/07 01:28:01;;;;;;;5.82;5.13;;;;;;;-5.33;100.00;100233.56;5052925;28;20072;-79
2021/01/07 01:31:04;;;;;;;4.57;2.75;;;;;;;-5.33;100.00;100228.94;5052706;28;20056;-79
2021/01/07 01:34:08;;;;;;;4.20;3.38;;;;;;;-5.33;100.00;100237.06;5040355;28;20108;-78
2021/01/07 01:37:11;;;;;;;3.20;2.35;;;;;;;-5.33;100.00;100223.50;5035739;28;20060;-79
2021/01/07 01:40:15;;;;;;;2.58;2.47;;;;;;;-5.35;100.00;100231.22;5034898;28;20064;-80
2021/01/07 01:43:18;;;;;;;5.85;4.45;;;;;;;-5.42;100.00;100228.38;5020673;28;20048;-78
2021/01/07 01:46:22;;;;;;;4.60;3.13;;;;;;;-5.44;100.00;100219.81;5031954;28;20057;-78
2021/01/07 01:49:25;;;;;;;2.67;2.45;;;;;;;-5.45;100.00;100229.88;5032457;28;20060;-79
2021/01/07 01:52:30;;;;;;;5.05;2.75;;;;;;;-5.47;100.00;100224.03;5031726;28;20048;-80
2021/01/07 01:55:34;;;;;;;11.05;3.58;;;;;;;-5.48;100.00;100230.56;5032317;28;20175;-79
2021/01/07 01:58:38;;;;;;;9.02;4.38;;;;;;;-5.50;100.00;100229.38;5032341;28;20045;-78
2021/01/07 02:01:42;;;;;;;7.25;4.22;;;;;;;-5.50;100.00;100230.16;3407995;23;20089;-76
2021/01/07 02:04:47;;;;;;;2.17;2.10;;;;;;;-5.51;100.00;100228.59;5051462;28;20051;-76
2021/01/07 02:07:52;;;;;;;2.78;2.25;;;;;;;-5.48;100.00;100232.53;5039343;28;20064;-76
2021/01/07 02:10:58;;;;;;;21.25;3.67;;;;;;;-5.54;100.00;100231.22;5032283;28;20056;-77
2021/01/07 02:14:02;;;;;;;7.43;2.80;;;;;;;-5.57;100.00;100231.97;5031396;28;20046;-76
2021/01/07 02:17:05;;;;;;;13.55;2.90;;;;;;;-5.62;100.00;100229.53;5031741;28;20056;-76
2021/01/07 02:20:10;;;;;;;3.55;3.28;;;;;;;-5.63;100.00;100231.44;5044974;28;20045;-76
2021/01/07 02:23:14;;;;;;;16.75;2.90;;;;;;;-5.65;100.00;100232.97;5051917;28;20052;-76
2021/01/07 02:26:19;;;;;;;8.48;4.75;;;;;;;-5.66;100.00;100232.19;5051704;28;20044;-76
2021/01/07 02:29:22;;;;;;;5.90;3.25;;;;;;;-5.65;100.00;100235.69;5051844;28;20048;-76
2021/01/07 02:32:25;;;;;;;3.30;3.03;;;;;;;-5.67;100.00;100240.66;5051677;28;20048;-76
2021/01/07 02:35:29;;;;;;;10.75;2.47;;;;;;;-5.70;100.00;100235.97;5050995;28;20052;-77
2021/01/07 02:38:33;;;;;;;4.45;2.80;;;;;;;-5.75;100.00;100225.38;5051577;28;20045;-76
2021/01/07 02:41:36;;;;;;;7.28;5.90;;;;;;;-5.78;100.00;100223.41;5051511;28;20048;-76
2021/01/07 02:44:40;;;;;;;2.30;2.00;;;;;;;-5.80;100.00;100229.16;5051566;28;20397;-76
2021/01/07 02:47:43;;;;;;;8.68;4.32;;;;;;;-5.81;100.00;100233.03;5051397;28;20515;-76
2021/01/07 02:50:48;;;;;;;1.48;1.48;;;;;;;-5.81;100.00;100229.53;5051030;28;20056;-76
2021/01/07 02:53:52;;;;;;;10.98;4.25;;;;;;;-5.83;100.00;100218.25;5051487;28;20048;-77
2021/01/07 02:56:56;;;;;;;2.67;2.20;;;;;;;-5.82;100.00;100222.53;5037308;28;20049;-83
2021/01/07 03:00:00;;;;;;;1.42;1.33;;;;;;;-5.83;100.00;100219.06;5023942;28;20053;-78
2021/01/07 03:03:03;;;;;;;2.53;2.33;;;;;;;-5.84;100.00;100220.22;5035347;28;20052;-78
2021/01/07 03:06:07;;;;;;;4.03;3.55;;;;;;;-5.87;100.00;100209.31;5035518;28;20056;-81
2021/01/07 03:09:10;;;;;;;3.17;2.88;;;;;;;-5.90;100.00;100208.09;5035677;28;20389;-79
2021/01/07 03:12:15;;;;;;;2.60;2.40;;;;;;;-5.92;100.00;100201.44;5035423;28;20056;-80
2021/01/07 03:15:19;;;;;;;4.97;2.58;;;;;;;-5.96;100.00;100208.72;5033917;28;20049;-80
2021/01/07 03:18:22;;;;;;;2.03;1.92;;;;;;;-6.01;100.00;100198.16;5034592;28;20056;-80
2021/01/07 03:21:25;;;;;;;3.00;2.72;;;;;;;-6.02;100.00;100204.75;5034540;28;20052;-80
2021/01/07 03:24:33;;;;;;;2.85;2.17;;;;;;;-6.05;100.00;100203.53;5034999;28;20108;-79
2021/01/07 03:27:37;;;;;;;3.55;2.67;;;;;;;-6.06;100.00;100195.75;5035035;28;20052;-79
2021/01/07 03:30:41;;;;;;;3.78;2.67;;;;;;;-6.05;100.00;100191.88;5022712;28;20508;-80
2021/01/07 03:33:44;;;;;;;2.17;2.08;;;;;;;-6.03;100.00;100195.03;5034885;28;20048;-79
2021/01/07 03:36:47;;;;;;;4.82;3.65;;;;;;;-6.03;100.00;100192.31;5022706;28;20056;-79
2021/01/07 03:39:51;;;;;;;2.90;2.20;;;;;;;-6.02;100.00;100186.53;5035570;28;20064;-85
2021/01/07 03:42:54;;;;;;;25.73;4.55;;;;;;;-6.05;100.00;100187.25;5035900;28;20056;-85
2021/01/07 03:45:58;;;;;;;2.72;2.53;;;;;;;-6.09;100.00;100182.91;5035137;28;20046;-86
2021/01/07 03:49:01;;;;;;;8.13;3.63;;;;;;;-6.15;100.00;100176.22;5034805;28;20060;-85
2021/01/07 03:52:04;;;;;;;2.75;2.20;;;;;;;-6.22;100.00;100177.63;5022629;28;20397;-85
2021/01/07 03:55:09;;;;;;;2.65;2.47;;;;;;;-6.25;100.00;100177.53;5023250;28;20527;-84
2021/01/07 03:58:12;;;;;;;2.70;2.55;;;;;;;-6.30;100.00;100170.47;5042849;28;20044;-85
2021/01/07 04:01:17;;;;;;;3.10;2.20;;;;;;;-6.32;100.00;100167.34;5054870;28;20052;-85
2021/01/07 04:04:20;;;;;;;2.47;1.58;;;;;;;-6.29;100.00;100172.06;5055053;28;20056;-85
2021/01/07 04:07:23;;;;;;;7.45;3.30;;;;;;;-6.31;100.00;100162.72;5042307;28;20055;-84
2021/01/07 04:10:27;;;;;;;7.07;2.50;;;;;;;-6.27;100.00;100169.78;5041968;28;20435;-85
2021/01/07 04:13:30;;;;;;;4.80;3.55;;;;;;;-6.29;100.00;100177.47;5042482;28;20408;-84
2021/01/07 04:16:34;;;;;;;10.73;2.15;;;;;;;-6.31;100.00;100174.34;5042484;28;20056;-83
2021/01/07 04:19:37;;;;;;;2.13;1.92;;;;;;;-6.28;100.00;100173.59;5042318;28;20111;-84
2021/01/07 04:22:41;;;;;;;8.82;3.78;;;;;;;-6.27;100.00;100175.19;5041995;28;20401;-84
2021/01/07 04:25:44;;;;;;;4.10;3.70;;;;;;;-6.25;100.00;100178.34;5041916;28;20060;-84
2021/01/07 04:28:48;;;;;;;5.03;2.47;;;;;;;-6.24;100.00;100184.53;5054466;28;20064;-84
2021/01/07 04:31:51;;;;;;;2.30;2.17;;;;;;;-6.25;100.00;100178.34;5054097;28;20048;-83
2021/01/07 04:34:54;;;;;;;3.05;2.28;;;;;;;-6.24;100.00;100179.88;5054567;28;20055;-84
2021/01/07 04:37:58;;;;;;;4.55;3.50;;;;;;;-6.15;100.00;100181.63;5054154;28;20424;-84
2021/01/07 04:41:01;;;;;;;4.88;2.38;;;;;;;-6.08;100.00;100187.16;5054326;28;20048;-85
2021/01/07 04:44:05;;;;;;;8.63;3.60;;;;;;;-5.95;100.00;100177.75;5053757;28;20052;-85
2021/01/07 04:47:09;;;;;;;12.85;5.65;;;;;;;-5.84;100.00;100171.41;5041669;28;20791;-85
2021/01/07 04:50:13;;;;;;;3.08;2.78;;;;;;;-5.69;100.00;100183.28;5054298;28;20049;-85
2021/01/07 04:53:16;;;;;;;10.10;2.58;;;;;;;-5.56;100.00;100180.06;5041990;28;20500;-85
2021/01/07 04:56:20;;;;;;;11.88;6.45;;;;;;;-5.42;100.00;100176.81;5043395;28;20049;-85
2021/01/07 04:59:24;;;;;;;16.02;4.78;;;;;;;-5.32;100.00;100176.22;5034240;28;20045;-86
2021/01/07 05:02:28;;;;;;;12.68;2.47;;;;;;;-5.23;100.00;100179.47;5033897;28;20045;-86
2021/01/07 05:05:34;;;;;;;4.05;2.70;;;;;;;-5.16;100.00;100176.09;5021755;28;20049;-85
2021/01/07 05:08:38;;;;;;;23.35;4.00;;;;;;;-5.06;100.00;100168.13;5033810;28;20052;-85
2021/01/07 05:11:42;;;;;;;13.38;3.38;;;;;;;-4.97;100.00;100165.94;5033897;28;20049;-85
2021/01/07 05:14:46;;;;;;;8.80;3.42;;;;;;;-4.82;100.00;100170.44;5034094;28;20050;-84
2021/01/07 05:17:49;;;;;;;8.10;3.00;;;;;;;-4.70;100.00;100170.22;5033760;28;20056;-85
2021/01/07 05:20:53;;;;;;;3.58;3.25;;;;;;;-4.60;100.00;100166.13;5021682;28;20044;-85
2021/01/07 05:23:57;;;;;;;7.43;2.22;;;;;;;-4.52;100.00;100164.28;5021214;28;20048;-85
2021/01/07 05:27:11;;;;;;;3.35;2.88;;;;;;;-4.44;100.00;100160.53;5032653;28;20052;-85
2021/01/07 05:30:15;;;;;;;2.97;2.67;;;;;;;-4.39;100.00;100157.47;5032709;28;20500;-85
2021/01/07 05:33:19;;;;;;;9.55;4.45;;;;;;;-4.31;100.00;100159.16;5020694;28;20056;-85
2021/01/07 05:36:31;;;;;;;12.15;3.75;;;;;;;-4.25;100.00;100157.66;5022525;28;20406;-85
2021/01/07 05:39:34;;;;;;;5.07;4.00;;;;;;;-4.17;100.00;100160.09;5020672;28;20054;-85
2021/01/07 05:42:43;;;;;;;6.65;4.40;;;;;;;-4.11;100.00;100150.47;5021109;28;20053;-85
2021/01/07 05:45:54;;;;;;;14.02;5.22;;;;;;;-4.02;100.00;100142.81;5021158;28;20048;-85
2021/01/07 05:48:58;;;;;;;13.02;4.28;;;;;;;-3.95;100.00;100142.91;5033602;28;20041;-85
2021/01/07 05:52:07;;;;;;;16.52;5.90;;;;;;;-3.89;100.00;100137.91;5021236;28;20042;-86
2021/01/07 05:55:16;;;;;;;3.15;1.58;;;;;;;-3.82;100.00;100132.53;5022291;28;20049;-86
2021/01/07 05:58:23;;;;;;;3.75;3.10;;;;;;;-3.77;100.00;100134.94;5053904;28;20048;-83
2021/01/07 06:01:27;;;;;;;4.85;4.13;;;;;;;-3.74;100.00;100127.94;5053228;28;20503;-84
2021/01/07 06:04:35;;;;;;;17.35;4.30;;;;;;;-3.71;100.00;100128.00;5052228;28;20052;-84
2021/01/07 06:07:39;;;;;;;4.35;3.05;;;;;;;-3.69;100.00;100120.25;5052755;28;20041;-84
2021/01/07 06:10:45;;;;;;;6.68;4.30;;;;;;;-3.67;100.00;100123.38;5053013;28;20056;-84
2021/01/07 06:13:51;;;;;;;4.28;2.55;;;;;;;-3.64;100.00;100128.09;5040542;28;20123;-84
2021/01/07 06:16:56;;;;;;;5.85;3.95;;;;;;;-3.60;100.00;100123.47;5052591;28;20071;-85
2021/01/07 06:20:00;;;;;;;6.13;4.03;;;;;;;-3.55;100.00;100114.94;5051571;28;20055;-86
2021/01/07 06:23:16;;;;;;;6.35;5.63;;;;;;;-3.47;100.00;100126.69;5051859;28;20052;-87
2021/01/07 06:26:24;;;;;;;16.00;6.88;;;;;;;-3.43;100.00;100117.41;5041700;28;20055;-87
2021/01/07 06:29:28;;;;;;;13.27;5.00;;;;;;;-3.37;100.00;100128.72;5042930;28;20057;-87
2021/01/07 06:32:31;;;;;;;6.35;4.03;;;;;;;-3.30;100.00;100115.16;5046189;28;20045;-87
2021/01/07 06:35:38;;;;;;;14.75;4.40;;;;;;;-3.22;100.00;100130.41;5043264;28;20052;-85
2021/01/07 06:38:52;;;;;;;16.48;5.10;;;;;;;-3.18;100.00;100129.28;5059070;28;20045;-87
2021/01/07 06:41:58;;;;;;;16.58;6.18;;;;;;;-3.16;100.00;100126.94;5051542;28;20401;-88
2021/01/07 06:45:04;;;;;;;11.40;4.13;;;;;;;-3.13;100.00;100130.88;5040793;28;20485;-87
2021/01/07 06:48:08;;;;;;;15.85;3.70;;;;;;;-3.10;100.00;100141.78;5040091;28;20053;-85
2021/01/07 06:51:12;;;;;;;10.25;4.07;;;;;;;-3.09;100.00;100132.47;5039830;28;20041;-86
2021/01/07 06:54:17;;;;;;;8.98;4.45;;;;;;;-3.01;100.00;100140.69;5052000;28;20044;-88
2021/01/07 06:57:21;;;;;;;10.85;5.18;;;;;;;-2.94;100.00;100129.84;5021421;28;20048;-88
2021/01/07 07:00:27;;;;;;;11.10;4.70;;;;;;;-2.89;100.00;100137.66;5021438;28;20426;-88
2021/01/07 07:03:32;;;;;;;12.40;4.07;;;;;;;-2.85;100.00;100130.28;5013487;28;20042;-88
2021/01/07 07:06:49;;;;;;;19.52;6.78;;;;;;;-2.75;100.00;100140.50;5032703;28;20493;-89
2021/01/07 07:10:19;;;;;;;10.90;2.50;;;;;;;-2.62;100.00;100136.31;5021624;28;20045;-87
2021/01/07 07:13:28;;;;;;;6.93;4.25;;;;;;;-2.53;100.00;100136.72;5032344;28;20045;-87
2021/01/07 07:16:33;;;;;;;9.35;4.05;;;;;;;-2.49;100.00;100132.09;5019986;28;20061;-88
2021/01/07 07:19:38;;;;;;;14.35;3.50;;;;;;;-2.42;100.00;100127.47;5020874;28;20051;-88
2021/01/07 07:22:42;;;;;;;18.45;5.68;;;;;;;-2.35;100.00;100141.13;5020623;28;20041;-88
2021/01/07 07:25:53;;;;;;;7.10;3.47;;;;;;;-2.27;100.00;100138.44;5020648;28;20053;-88
2021/01/07 07:29:02;;;;;;;18.95;7.35;;;;;;;-2.22;100.00;100130.69;5020480;28;20061;-88
2021/01/07 07:32:20;;;;;;;13.25;3.63;;;;;;;-2.13;100.00;100139.28;5020365;28;20049;-88
2021/01/07 07:35:28;;;;;;;6.25;3.92;;;;;;;-2.08;100.00;100129.97;5020570;28;20054;-88
2021/01/07 07:38:33;;;;;;;21.90;4.47;;;;;;;-2.05;100.00;100135.41;5032270;28;20052;-87
2021/01/07 07:41:42;;;;;;;9.98;3.63;;;;;;;-2.03;100.00;100138.53;5020148;28;20045;-87
2021/01/07 07:44:47;;;;;;;20.67;4.82;;;;;;;-2.05;100.00;100129.19;5022848;28;20052;-88
2021/01/07 07:47:51;;;;;;;18.08;5.47;;;;;;;-2.03;100.00;100133.09;5037244;28;20049;-86
2021/01/07 07:51:11;;;;;;;12.57;3.42;;;;;;;-1.99;100.00;100136.59;5022349;28;20504;-87
2021/01/07 07:54:15;;;;;;;6.57;3.05;;;;;;;-2.00;100.00;100132.34;5023496;28;20042;-87
2021/01/07 07:57:18;;;;;;;9.52;4.13;;;;;;;-2.01;100.00;100135.41;5041599;28;20052;-89
2021/01/07 08:00:23;;;;;;;11.85;2.75;;;;;;;-1.99;100.00;100136.59;5055371;28;20044;-86
2021/01/07 08:03:31;;;;;;;11.00;2.97;;;;;;;-1.97;100.00;100142.47;5054873;28;20057;-86
2021/01/07 08:06:36;;;;;;;6.85;3.17;;;;;;;-2.00;100.00;100139.72;5055266;28;20053;-86
2021/01/07 08:09:40;;;;;;;11.85;3.10;;;;;;;-1.99;100.00;100141.31;5054735;28;20048;-87
2021/01/07 08:12:43;;;;;;;15.80;4.50;;;;;;;-2.01;100.00;100138.94;5054989;28;20397;-86
2021/01/07 08:15:52;;;;;;;7.60;1.55;;;;;;;-2.01;100.00;100147.13;5053826;28;20409;-86
2021/01/07 08:18:55;;;;;;;9.63;3.00;;;;;;;-1.99;100.00;100144.03;5054809;28;20401;-85
2021/01/07 08:21:59;;;;;;;2.65;1.92;;;;;;;-1.98;100.00;100148.31;5053761;28;20052;-86
2021/01/07 08:25:03;;;;;;;2.00;1.75;;;;;;;-1.98;100.00;100149.09;5054066;28;20048;-86
2021/01/07 08:28:22;;;;;;;9.52;3.45;;;;;;;-1.95;100.00;100151.03;5053546;28;20554;-86
2021/01/07 08:31:30;;;;;;;14.38;4.95;;;;;;;-1.95;100.00;100151.03;5053701;28;20413;-86
2021/01/07 08:34:34;;;;;;;6.50;1.27;;;;;;;-1.93;100.00;100154.19;5053878;28;20045;-86
2021/01/07 08:37:42;;;;;;;9.88;2.22;;;;;;;-1.92;100.00;100155.75;5053346;28;20060;-86
2021/01/07 08:40:46;;;;;;;6.30;2.85;;;;;;;-1.90;100.00;100155.34;5053076;28;20410;-86
2021/01/07 08:43:51;;;;;;;8.85;2.65;;;;;;;-1.92;100.00;100155.75;5053103;28;20052;-86
2021/01/07 08:46:55;;;;;;;8.77;1.95;;;;;;;-1.91;100.00;100164.72;5052928;28;20056;-86
2021/01/07 08:50:11;;;;;;;4.90;2.47;;;;;;;-1.89;100.00;100157.72;5053698;28;20052;-86
2021/01/07 08:53:15;;;;;;;6.82;2.67;;;;;;;-1.86;100.00;100147.94;5053609;28;20064;-86
2021/01/07 08:56:35;;;;;;;24.38;4.32;;;;;;;-1.84;100.00;100151.88;5042356;28;20504;-86
2021/01/07 08:59:40;;;;;;;6.30;3.80;;;;;;;-1.80;100.00;100157.34;5034536;28;20045;-86
2021/01/07 09:02:44;;;;;;;10.95;3.60;;;;;;;-1.79;100.00;100159.69;5033454;28;20047;-86
2021/01/07 09:05:47;;;;;;;15.32;3.88;;;;;;;-1.76;100.00;100161.66;5031316;28;20041;-87
2021/01/07 09:08:51;;;;;;;3.95;1.88;;;;;;;-1.75;100.00;100148.78;5020933;28;20045;-81
2021/01/07 09:12:27;;;;;;;22.17;3.28;;;;;;;-1.70;100.00;100148.41;5032335;28;20048;-81
2021/01/07 09:15:30;;;;;;;23.52;3.70;;;;;;;-1.72;100.00;100157.00;5033198;28;20405;-82
2021/01/07 09:18:34;;;;;;;7.50;3.42;;;;;;;-1.68;100.00;100154.25;5052090;28;20053;-81
2021/01/07 09:21:38;;;;;;;1.45;1.20;;;;;;;-1.69;100.00;100164.38;5051854;28;20043;-83
2021/01/07 09:24:41;;;;;;;5.90;1.40;;;;;;;-1.69;100.00;100158.94;5052483;28;20052;-82
2021/01/07 09:27:47;;;;;;;7.38;2.53;;;;;;;-1.69;100.00;100158.94;5052497;28;20048;-82
2021/01/07 09:30:50;;;;;;;30.23;3.00;;;;;;;-1.66;100.00;100158.16;5051903;28;20047;-82
2021/01/07 09:33:53;;;;;;;5.95;2.50;;;;;;;-1.66;100.00;100151.94;5052884;28;20053;-81
2021/01/07 09:37:16;;;;;;;12.27;3.50;;;;;;;-1.62;100.00;100158.97;5052946;28;20071;-81
2021/01/07 09:40:20;;;;;;;4.72;1.98;;;;;;;-1.63;100.00;100168.34;5052990;28;20045;-82
2021/01/07 09:43:23;;;;;;;10.20;2.50;;;;;;;-1.61;100.00;100166.00;5053175;28;20060;-83
2021/01/07 09:46:27;;;;;;;8.60;3.70;;;;;;;-1.59;100.00;100169.13;5053014;28;20049;-82
2021/01/07 09:49:32;;;;;;;43.33;3.78;;;;;;;-1.61;100.00;100168.72;5039953;28;20052;-82
2021/01/07 09:52:35;;;;;;;5.78;2.67;;;;;;;-1.62;100.00;100153.50;5052432;28;20480;-84
2021/01/07 09:55:39;;;;;;;3.03;2.42;;;;;;;-1.56;100.00;100154.69;5047470;28;20057;-85
2021/01/07 09:58:43;;;;;;;4.55;3.20;;;;;;;-1.57;100.00;100158.59;5020471;28;20056;-88
2021/01/07 10:01:47;;;;;;;12.20;3.28;;;;;;;-1.52;100.00;100158.19;5027153;28;20076;-91
2021/01/07 10:04:53;;;;;;;10.27;3.08;;;;;;;-1.45;100.00;100153.94;5040805;28;20041;-91
2021/01/07 10:07:59;;;;;;;6.25;2.65;;;;;;;-1.42;100.00;100156.66;5039929;28;20485;-86
2021/01/07 10:11:02;;;;;;;8.32;2.45;;;;;;;-1.45;100.00;100159.41;5053406;28;20052;-84
2021/01/07 10:14:06;;;;;;;14.60;3.40;;;;;;;-1.48;100.00;100158.22;5040250;28;20408;-85
2021/01/07 10:17:10;;;;;;;21.05;4.85;;;;;;;-1.49;100.00;100153.16;5040603;28;20057;-86
2021/01/07 10:20:13;;;;;;;5.35;2.30;;;;;;;-1.52;100.00;100153.91;5039984;28;20041;-85
2021/01/07 10:23:18;;;;;;;3.58;2.72;;;;;;;-1.54;100.00;100152.34;5052750;28;20094;-84
2021/01/07 10:26:21;;;;;;;7.45;2.70;;;;;;;-1.58;100.00;100143.38;5039828;28;20524;-83
2021/01/07 10:29:27;;;;;;;11.35;4.20;;;;;;;-1.59;100.00;100147.28;5041050;28;20060;-85
2021/01/07 10:32:31;;;;;;;22.85;3.38;;;;;;;-1.54;100.00;100138.69;5051659;28;20049;-86
2021/01/07 10:35:38;;;;;;;10.18;3.55;;;;;;;-1.48;100.00;100138.31;5039925;28;20056;-86
2021/01/07 10:38:46;;;;;;;6.05;2.78;;;;;;;-1.46;100.00;100149.63;5040379;28;20049;-85
2021/01/07 10:41:50;;;;;;;5.45;4.13;;;;;;;-1.44;100.00;100150.81;5052369;28;20052;-86
2021/01/07 10:44:54;;;;;;;6.88;3.53;;;;;;;-1.41;100.00;100149.25;5052485;28;20044;-86
2021/01/07 10:47:59;;;;;;;9.75;3.67;;;;;;;-1.39;100.00;100144.97;5040547;28;20048;-87
2021/01/07 10:51:03;;;;;;;22.55;7.15;;;;;;;-1.40;100.00;100143.41;5052699;28;20048;-86
2021/01/07 10:54:37;;;;;;;17.45;4.47;;;;;;;-1.37;100.00;100130.94;5040496;28;20045;-86
2021/01/07 10:58:10;;;;;;;15.35;4.70;;;;;;;-1.37;100.00;100125.47;5020474;28;20493;-87
2021/01/07 11:01:32;;;;;;;15.02;4.32;;;;;;;-1.31;100.00;100121.16;5020938;28;20041;-87
2021/01/07 11:05:04;;;;;;;27.83;5.10;;;;;;;-1.35;100.00;100123.13;5032095;28;20049;-83
2021/01/07 11:08:16;;;;;;;15.47;7.43;;;;;;;-1.35;100.00;100117.66;5032320;28;20053;-85
2021/01/07 11:11:21;;;;;;;;;;;;;;;-1.27;100.00;100125.47;5021705;28;20279;-87
2021/01/07 11:14:31;;;;;;;21.70;4.88;;;;;;;-1.23;100.00;100115.31;5033096;28;19921;-89
2021/01/07 11:17:37;;;;;;;16.50;6.70;;;;;;;-1.17;100.00;100110.25;5033236;28;20053;-84
2021/01/07 11:20:44;;;;;;;13.95;5.05;;;;;;;-1.22;100.00;100103.22;5036180;28;20049;-85
2021/01/07 11:23:48;;;;;;;11.60;4.60;;;;;;;-1.20;100.00;100094.63;5024012;28;20053;-85
2021/01/07 11:26:57;;;;;;;29.70;6.63;;;;;;;-1.17;100.00;100091.13;5024222;28;20057;-86
2021/01/07 11:30:03;;;;;;;12.23;3.70;;;;;;;-1.08;100.00;100096.97;5024197;28;20586;-85
2021/01/07 11:33:07;;;;;;;12.68;5.60;;;;;;;-1.08;100.00;100084.09;5023741;28;20046;-86
2021/01/07 11:36:17;;;;;;;11.68;5.43;;;;;;;-1.01;100.00;100080.56;5023996;28;20045;-86
2021/01/07 11:39:24;;;;;;;12.77;3.88;;;;;;;-0.97;100.00;100070.41;5036679;28;20041;-86
2021/01/07 11:42:50;;;;;;;11.25;4.43;;;;;;;-0.99;100.00;100072.75;5036263;28;20042;-89
2021/01/07 11:45:59;;;;;;;14.52;5.75;;;;;;;-0.94;100.00;100073.16;5024779;28;20037;-87
2021/01/07 11:49:04;;;;;;;11.40;3.95;;;;;;;-0.88;100.00;100065.31;5023902;28;20050;-88
2021/01/07 11:52:11;;;;;;;29.95;4.95;;;;;;;-0.94;100.00;100061.44;5024914;28;20046;-89
2021/01/07 11:55:15;;;;;;;20.83;5.13;;;;;;;-1.00;100.00;100052.88;5025496;28;20042;-87
2021/01/07 11:58:18;;;;;;;16.20;5.45;;;;;;;-1.02;100.00;100060.66;5043336;28;20049;-85
2021/01/07 12:01:22;;;;;;;11.63;4.03;;;;;;;-0.91;100.00;100052.47;5055408;28;20045;-85
2021/01/07 12:04:26;;;;;;;12.52;3.30;;;;;;;-0.80;100.00;100058.66;5036184;28;20055;-85
2021/01/07 12:07:44;;;;;;;12.70;4.28;;;;;;;-0.84;100.00;100044.22;5054951;28;20049;-84
2021/01/07 12:10:52;;;;;;;17.35;4.03;;;;;;;-0.92;100.00;100045.41;5042877;28;20040;-86
2021/01/07 12:14:10;;;;;;;24.05;5.68;;;;;;;-0.93;100.00;100032.91;5055750;28;20056;-85
2021/01/07 12:17:14;;;;;;;44.78;3.90;;;;;;;-0.91;100.00;100031.34;5056241;28;20049;-87
2021/01/07 12:20:18;;;;;;;11.30;3.92;;;;;;;-0.87;100.00;100029.38;5050699;28;20045;-87
2021/01/07 12:23:24;;;;;;;23.88;4.85;;;;;;;-0.85;100.00;100031.75;5043236;28;20409;-86
2021/01/07 12:26:28;;;;;;;26.45;6.53;;;;;;;-0.86;100.00;100020.03;5030328;28;20041;-87
2021/01/07 12:29:36;;;;;;;8.00;4.45;;;;;;;-0.82;100.00;100020.00;5033354;28;20069;-86
2021/01/07 12:32:47;;;;;;;14.90;4.18;;;;;;;-0.80;100.00;100017.66;5034513;28;20052;-89
2021/01/07 12:36:25;;;;;;;24.38;5.45;;;;;;;-0.77;100.00;100019.63;5034879;28;20409;-88
2021/01/07 12:39:36;;;;;;;16.65;4.05;;;;;;;-0.76;100.00;100018.44;5035028;28;20041;-88
2021/01/07 12:42:54;;;;;;;22.83;6.25;;;;;;;-0.75;100.00;100011.78;5034066;28;20049;-87
2021/01/07 12:46:01;;;;;;;23.15;4.85;;;;;;;-0.72;100.00;100013.75;5033416;28;20045;-87
2021/01/07 12:49:05;;;;;;;19.02;4.75;;;;;;;-0.70;100.00;100013.34;5033656;28;20045;-88
2021/01/07 12:52:10;;;;;;;28.98;4.95;;;;;;;-0.70;100.00;100000.47;5037446;28;20046;-85
2021/01/07 12:55:13;;;;;;;12.30;4.85;;;;;;;-0.67;100.00;99998.88;5033302;28;20050;-86
2021/01/07 12:58:24;;;;;;;17.15;4.80;;;;;;;-0.61;100.00;99998.09;5051001;28;20056;-80
2021/01/07 13:01:35;;;;;;;17.15;5.40;;;;;;;-0.54;100.00;99998.03;5040662;28;20063;-83
2021/01/07 13:04:55;;;;;;;33.25;6.53;;;;;;;-0.50;100.00;99992.56;5052992;28;20052;-84
2021/01/07 13:08:02;;;;;;;12.93;4.40;;;;;;;-0.52;100.00;99990.22;5053464;28;20062;-82
2021/01/07 13:11:08;;;;;;;21.77;4.75;;;;;;;-0.46;100.00;99988.66;5053192;28;20398;-84
2021/01/07 13:14:12;;;;;;;29.92;6.15;;;;;;;-0.40;100.00;99984.31;5053539;28;20047;-82
2021/01/07 13:17:16;;;;;;;10.18;4.63;;;;;;;-0.37;100.00;99980.75;5053053;28;20055;-81
2021/01/07 13:20:20;;;;;;;33.05;5.82;;;;;;;-0.37;100.00;99983.50;5052631;28;20051;-82
2021/01/07 13:23:25;;;;;;;20.27;4.72;;;;;;;-0.35;100.00;99983.91;5053066;28;20500;-81
2021/01/07 13:26:29;;;;;;;28.35;5.65;;;;;;;-0.29;100.00;99976.84;5052759;28;20413;-82
2021/01/07 13:29:33;;;;;;;14.90;6.03;;;;;;;-0.24;100.00;99979.13;5052714;28;20052;-82
2021/01/07 13:32:36;;;;;;;6.60;3.25;;;;;;;-0.22;100.00;99971.28;5052947;28;20048;-84
2021/01/07 13:35:41;;;;;;;16.15;4.97;;;;;;;-0.21;100.00;99975.59;5052121;28;20645;-80
2021/01/07 13:38:44;;;;;;;21.13;6.28;;;;;;;-0.29;100.00;99963.16;5052497;28;20064;-85
2021/01/07 13:41:50;;;;;;;18.17;4.75;;;;;;;-0.33;100.00;99967.06;5051679;28;20052;-78
2021/01/07 13:44:58;;;;;;;14.73;5.30;;;;;;;-0.37;100.00;99964.34;5052579;28;20055;-78
2021/01/07 13:48:02;;;;;;;17.52;4.90;;;;;;;-0.36;100.00;99960.44;5049670;28;20508;-78
2021/01/07 13:51:10;;;;;;;30.70;7.00;;;;;;;-0.39;100.00;99963.97;5051042;28;20052;-79
2021/01/07 13:54:14;;;;;;;16.27;4.38;;;;;;;-0.42;100.00;99958.53;5046624;28;20080;-80
2021/01/07 13:57:17;;;;;;;23.05;5.10;;;;;;;-0.50;100.00;99960.53;5033882;28;20049;-82
2021/01/07 14:00:22;;;;;;;12.38;5.97;;;;;;;-0.53;100.00;99957.78;5031932;28;20526;-84
2021/01/07 14:03:26;;;;;;;31.67;6.20;;;;;;;-0.58;100.00;99948.06;5049359;28;20056;-82
2021/01/07 14:06:30;;;;;;;16.63;5.18;;;;;;;-0.64;100.00;99952.38;5052267;28;20044;-85
2021/01/07 14:09:34;;;;;;;15.40;6.05;;;;;;;-0.68;100.00;99948.88;5053377;28;20048;-82
2021/01/07 14:12:42;;;;;;;41.15;4.13;;;;;;;-0.67;100.00;99958.63;5052488;28;20425;-80